sensor_id;sensor_type;location;lat;lon;timestamp;P1;durP1;ratioP1;P2;durP2;ratioP2
31724;SDS011;18306;40.960;14.836;2022-07-12T00:00:41;3.05;;;2.80;;
31724;SDS011;18306;40.960;14.836;2022-07-12T00:03:08;4.38;;;2.03;;
31724;SDS011;18306;40.960;14.836;2022-07-12T00:05:35;2.35;;;2.15;;
31724;SDS011;18306;40.960;14.836;2022-07-12T00:08:03;2.03;;;1.58;;
31724;SDS011;18306;40.960;14.836;2022-07-12T00:10:32;2.70;;;2.38;;
31724;SDS011;18306;40.960;14.836;2022-07-12T00:12:59;3.05;;;2.35;;
31724;SDS011;18306;40.960;14.836;2022-07-12T00:15:27;2.83;;;2.53;;
31724;SDS011;18306;40.960;14.836;2022-07-12T00:17:54;5.35;;;2.42;;
31724;SDS011;18306;40.960;14.836;2022-07-12T00:20:21;3.30;;;2.50;;
31724;SDS011;18306;40.960;14.836;2022-07-12T00:22:48;13.38;;;2.63;;
31724;SDS011;18306;40.960;14.836;2022-07-12T00:25:16;3.33;;;2.83;;
31724;SDS011;18306;40.960;14.836;2022-07-12T00:27:43;4.13;;;2.88;;
31724;SDS011;18306;40.960;14.836;2022-07-12T00:30:10;6.38;;;3.55;;
31724;SDS011;18306;40.960;14.836;2022-07-12T00:32:38;7.55;;;2.88;;
31724;SDS011;18306;40.960;14.836;2022-07-12T00:35:05;2.90;;;2.60;;
31724;SDS011;18306;40.960;14.836;2022-07-12T00:37:33;4.20;;;2.17;;
31724;SDS011;18306;40.960;14.836;2022-07-12T00:40:00;3.75;;;2.53;;
31724;SDS011;18306;40.960;14.836;2022-07-12T00:42:30;3.47;;;2.72;;
31724;SDS011;18306;40.960;14.836;2022-07-12T00:44:58;4.57;;;2.88;;
31724;SDS011;18306;40.960;14.836;2022-07-12T00:47:36;3.72;;;3.05;;
31724;SDS011;18306;40.960;14.836;2022-07-12T00:50:07;4.30;;;2.65;;
31724;SDS011;18306;40.960;14.836;2022-07-12T00:52:36;3.22;;;2.63;;
31724;SDS011;18306;40.960;14.836;2022-07-12T00:55:04;5.03;;;2.58;;
31724;SDS011;18306;40.960;14.836;2022-07-12T00:57:32;3.88;;;2.72;;
31724;SDS011;18306;40.960;14.836;2022-07-12T01:00:01;8.80;;;2.83;;
31724;SDS011;18306;40.960;14.836;2022-07-12T01:02:34;10.70;;;2.65;;
31724;SDS011;18306;40.960;14.836;2022-07-12T01:05:06;4.53;;;2.80;;
31724;SDS011;18306;40.960;14.836;2022-07-12T01:07:34;3.58;;;2.47;;
31724;SDS011;18306;40.960;14.836;2022-07-12T01:10:03;3.13;;;2.67;;
31724;SDS011;18306;40.960;14.836;2022-07-12T01:12:31;2.42;;;2.22;;
31724;SDS011;18306;40.960;14.836;2022-07-12T01:14:58;3.78;;;3.00;;
31724;SDS011;18306;40.960;14.836;2022-07-12T01:17:27;5.55;;;3.35;;
31724;SDS011;18306;40.960;14.836;2022-07-12T01:19:55;8.05;;;3.35;;
31724;SDS011;18306;40.960;14.836;2022-07-12T01:22:29;5.63;;;3.28;;
31724;SDS011;18306;40.960;14.836;2022-07-12T01:24:58;4.28;;;3.35;;
31724;SDS011;18306;40.960;14.836;2022-07-12T01:27:27;3.67;;;2.63;;
31724;SDS011;18306;40.960;14.836;2022-07-12T01:29:55;6.18;;;4.45;;
31724;SDS011;18306;40.960;14.836;2022-07-12T01:32:22;4.68;;;3.60;;
31724;SDS011;18306;40.960;14.836;2022-07-12T01:34:56;4.78;;;3.22;;
31724;SDS011;18306;40.960;14.836;2022-07-12T01:37:34;5.47;;;3.70;;
31724;SDS011;18306;40.960;14.836;2022-07-12T01:40:09;6.90;;;3.28;;
31724;SDS011;18306;40.960;14.836;2022-07-12T01:42:41;8.80;;;4.65;;
31724;SDS011;18306;40.960;14.836;2022-07-12T01:45:10;12.38;;;3.65;;
31724;SDS011;18306;40.960;14.836;2022-07-12T01:47:38;5.82;;;3.67;;
31724;SDS011;18306;40.960;14.836;2022-07-12T01:50:06;4.85;;;4.15;;
31724;SDS011;18306;40.960;14.836;2022-07-12T01:52:38;4.43;;;2.95;;
31724;SDS011;18306;40.960;14.836;2022-07-12T01:55:06;5.57;;;3.08;;
31724;SDS011;18306;40.960;14.836;2022-07-12T01:57:37;5.70;;;2.78;;
31724;SDS011;18306;40.960;14.836;2022-07-12T02:00:07;15.65;;;2.97;;
31724;SDS011;18306;40.960;14.836;2022-07-12T02:02:35;5.72;;;2.53;;
31724;SDS011;18306;40.960;14.836;2022-07-12T02:05:04;6.38;;;3.60;;
31724;SDS011;18306;40.960;14.836;2022-07-12T02:07:35;5.93;;;2.70;;
31724;SDS011;18306;40.960;14.836;2022-07-12T02:10:04;3.75;;;3.03;;
31724;SDS011;18306;40.960;14.836;2022-07-12T02:12:33;4.28;;;2.90;;
31724;SDS011;18306;40.960;14.836;2022-07-12T02:15:00;3.60;;;3.28;;
31724;SDS011;18306;40.960;14.836;2022-07-12T02:17:28;2.90;;;2.42;;
31724;SDS011;18306;40.960;14.836;2022-07-12T02:19:55;5.03;;;2.90;;
31724;SDS011;18306;40.960;14.836;2022-07-12T02:22:22;8.50;;;2.28;;
31724;SDS011;18306;40.960;14.836;2022-07-12T02:24:49;2.70;;;2.50;;
31724;SDS011;18306;40.960;14.836;2022-07-12T02:27:20;4.45;;;2.53;;
31724;SDS011;18306;40.960;14.836;2022-07-12T02:29:47;3.72;;;2.85;;
31724;SDS011;18306;40.960;14.836;2022-07-12T02:32:14;7.57;;;2.75;;
31724;SDS011;18306;40.960;14.836;2022-07-12T02:34:41;3.83;;;2.58;;
31724;SDS011;18306;40.960;14.836;2022-07-12T02:37:08;4.03;;;2.80;;
31724;SDS011;18306;40.960;14.836;2022-07-12T02:39:35;4.25;;;3.22;;
31724;SDS011;18306;40.960;14.836;2022-07-12T02:42:03;6.03;;;3.40;;
31724;SDS011;18306;40.960;14.836;2022-07-12T02:44:30;4.22;;;3.20;;
31724;SDS011;18306;40.960;14.836;2022-07-12T02:46:59;4.45;;;2.90;;
31724;SDS011;18306;40.960;14.836;2022-07-12T02:49:27;6.32;;;3.30;;
31724;SDS011;18306;40.960;14.836;2022-07-12T02:51:54;2.47;;;2.28;;
31724;SDS011;18306;40.960;14.836;2022-07-12T02:54:21;4.20;;;2.35;;
31724;SDS011;18306;40.960;14.836;2022-07-12T02:56:48;3.40;;;2.63;;
31724;SDS011;18306;40.960;14.836;2022-07-12T02:59:16;4.00;;;2.17;;
31724;SDS011;18306;40.960;14.836;2022-07-12T03:01:43;5.25;;;2.72;;
31724;SDS011;18306;40.960;14.836;2022-07-12T03:04:10;4.32;;;2.75;;
31724;SDS011;18306;40.960;14.836;2022-07-12T03:06:37;4.05;;;2.35;;
31724;SDS011;18306;40.960;14.836;2022-07-12T03:09:05;4.35;;;2.60;;
31724;SDS011;18306;40.960;14.836;2022-07-12T03:11:32;5.55;;;2.80;;
31724;SDS011;18306;40.960;14.836;2022-07-12T03:13:59;2.25;;;2.05;;
31724;SDS011;18306;40.960;14.836;2022-07-12T03:16:27;7.43;;;2.55;;
31724;SDS011;18306;40.960;14.836;2022-07-12T03:18:54;3.28;;;2.58;;
31724;SDS011;18306;40.960;14.836;2022-07-12T03:21:21;2.80;;;2.53;;
31724;SDS011;18306;40.960;14.836;2022-07-12T03:23:48;4.88;;;2.90;;
31724;SDS011;18306;40.960;14.836;2022-07-12T03:26:16;4.70;;;3.10;;
31724;SDS011;18306;40.960;14.836;2022-07-12T03:28:43;4.53;;;2.85;;
31724;SDS011;18306;40.960;14.836;2022-07-12T03:31:11;2.85;;;2.00;;
31724;SDS011;18306;40.960;14.836;2022-07-12T03:33:38;2.47;;;2.28;;
31724;SDS011;18306;40.960;14.836;2022-07-12T03:36:05;4.40;;;2.90;;
31724;SDS011;18306;40.960;14.836;2022-07-12T03:38:34;4.57;;;2.60;;
31724;SDS011;18306;40.960;14.836;2022-07-12T03:41:03;6.32;;;3.22;;
31724;SDS011;18306;40.960;14.836;2022-07-12T03:43:30;5.75;;;3.03;;
31724;SDS011;18306;40.960;14.836;2022-07-12T03:45:57;5.70;;;3.10;;
31724;SDS011;18306;40.960;14.836;2022-07-12T03:48:24;3.22;;;1.90;;
31724;SDS011;18306;40.960;14.836;2022-07-12T03:50:52;2.63;;;2.40;;
31724;SDS011;18306;40.960;14.836;2022-07-12T03:53:19;9.40;;;2.97;;
31724;SDS011;18306;40.960;14.836;2022-07-12T03:55:47;4.13;;;2.00;;
31724;SDS011;18306;40.960;14.836;2022-07-12T03:58:14;2.45;;;2.03;;
31724;SDS011;18306;40.960;14.836;2022-07-12T04:00:41;3.33;;;2.53;;
31724;SDS011;18306;40.960;14.836;2022-07-12T04:03:11;3.53;;;2.95;;
31724;SDS011;18306;40.960;14.836;2022-07-12T04:05:38;4.38;;;2.92;;
31724;SDS011;18306;40.960;14.836;2022-07-12T04:08:05;4.32;;;2.75;;
31724;SDS011;18306;40.960;14.836;2022-07-12T04:10:33;5.55;;;2.78;;
31724;SDS011;18306;40.960;14.836;2022-07-12T04:13:00;5.25;;;2.70;;
31724;SDS011;18306;40.960;14.836;2022-07-12T04:15:27;5.13;;;2.65;;
31724;SDS011;18306;40.960;14.836;2022-07-12T04:17:54;2.42;;;2.22;;
31724;SDS011;18306;40.960;14.836;2022-07-12T04:20:21;4.82;;;2.80;;
31724;SDS011;18306;40.960;14.836;2022-07-12T04:22:48;4.05;;;2.88;;
31724;SDS011;18306;40.960;14.836;2022-07-12T04:25:15;5.35;;;3.35;;
31724;SDS011;18306;40.960;14.836;2022-07-12T04:27:42;3.15;;;2.67;;
31724;SDS011;18306;40.960;14.836;2022-07-12T04:30:10;4.60;;;2.70;;
31724;SDS011;18306;40.960;14.836;2022-07-12T04:32:37;2.78;;;2.20;;
31724;SDS011;18306;40.960;14.836;2022-07-12T04:35:04;3.35;;;3.03;;
31724;SDS011;18306;40.960;14.836;2022-07-12T04:37:32;3.85;;;2.53;;
31724;SDS011;18306;40.960;14.836;2022-07-12T04:40:00;6.90;;;3.15;;
31724;SDS011;18306;40.960;14.836;2022-07-12T04:42:28;2.22;;;2.10;;
31724;SDS011;18306;40.960;14.836;2022-07-12T04:44:56;10.02;;;2.20;;
31724;SDS011;18306;40.960;14.836;2022-07-12T04:47:23;8.98;;;2.25;;
31724;SDS011;18306;40.960;14.836;2022-07-12T04:49:50;4.45;;;2.58;;
31724;SDS011;18306;40.960;14.836;2022-07-12T04:52:17;3.22;;;2.20;;
31724;SDS011;18306;40.960;14.836;2022-07-12T04:54:44;6.07;;;3.67;;
31724;SDS011;18306;40.960;14.836;2022-07-12T04:57:11;7.82;;;2.85;;
31724;SDS011;18306;40.960;14.836;2022-07-12T04:59:38;2.97;;;2.10;;
31724;SDS011;18306;40.960;14.836;2022-07-12T05:02:05;5.03;;;2.63;;
31724;SDS011;18306;40.960;14.836;2022-07-12T05:04:33;4.82;;;2.33;;
31724;SDS011;18306;40.960;14.836;2022-07-12T05:07:00;3.95;;;2.25;;
31724;SDS011;18306;40.960;14.836;2022-07-12T05:09:27;2.50;;;2.05;;
31724;SDS011;18306;40.960;14.836;2022-07-12T05:11:54;5.45;;;2.83;;
31724;SDS011;18306;40.960;14.836;2022-07-12T05:14:21;3.20;;;2.50;;
31724;SDS011;18306;40.960;14.836;2022-07-12T05:16:49;12.27;;;2.60;;
31724;SDS011;18306;40.960;14.836;2022-07-12T05:19:16;5.28;;;2.63;;
31724;SDS011;18306;40.960;14.836;2022-07-12T05:21:43;6.65;;;2.67;;
31724;SDS011;18306;40.960;14.836;2022-07-12T05:24:12;4.20;;;2.80;;
31724;SDS011;18306;40.960;14.836;2022-07-12T05:26:48;3.08;;;2.30;;
31724;SDS011;18306;40.960;14.836;2022-07-12T05:29:30;4.63;;;2.45;;
31724;SDS011;18306;40.960;14.836;2022-07-12T05:32:09;6.78;;;2.72;;
31724;SDS011;18306;40.960;14.836;2022-07-12T05:34:46;3.85;;;2.45;;
31724;SDS011;18306;40.960;14.836;2022-07-12T05:37:18;4.25;;;1.85;;
31724;SDS011;18306;40.960;14.836;2022-07-12T05:39:45;4.18;;;2.33;;
31724;SDS011;18306;40.960;14.836;2022-07-12T05:42:12;2.90;;;2.13;;
31724;SDS011;18306;40.960;14.836;2022-07-12T05:44:39;8.55;;;3.00;;
31724;SDS011;18306;40.960;14.836;2022-07-12T05:47:06;3.45;;;2.00;;
31724;SDS011;18306;40.960;14.836;2022-07-12T05:49:33;7.43;;;2.67;;
31724;SDS011;18306;40.960;14.836;2022-07-12T05:52:01;7.35;;;2.45;;
31724;SDS011;18306;40.960;14.836;2022-07-12T05:54:46;9.07;;;2.50;;
31724;SDS011;18306;40.960;14.836;2022-07-12T05:57:14;2.85;;;1.90;;
31724;SDS011;18306;40.960;14.836;2022-07-12T05:59:42;3.45;;;1.95;;
31724;SDS011;18306;40.960;14.836;2022-07-12T06:02:10;4.85;;;2.13;;
31724;SDS011;18306;40.960;14.836;2022-07-12T06:04:37;3.35;;;1.80;;
31724;SDS011;18306;40.960;14.836;2022-07-12T06:07:06;2.28;;;1.73;;
31724;SDS011;18306;40.960;14.836;2022-07-12T06:09:33;5.97;;;1.80;;
31724;SDS011;18306;40.960;14.836;2022-07-12T06:12:00;2.50;;;1.92;;
31724;SDS011;18306;40.960;14.836;2022-07-12T06:14:29;6.57;;;2.67;;
31724;SDS011;18306;40.960;14.836;2022-07-12T06:16:56;3.25;;;1.98;;
31724;SDS011;18306;40.960;14.836;2022-07-12T06:19:27;2.03;;;1.75;;
31724;SDS011;18306;40.960;14.836;2022-07-12T06:21:55;5.07;;;2.08;;
31724;SDS011;18306;40.960;14.836;2022-07-12T06:24:23;4.63;;;2.22;;
31724;SDS011;18306;40.960;14.836;2022-07-12T06:26:50;5.18;;;2.10;;
31724;SDS011;18306;40.960;14.836;2022-07-12T06:29:18;4.32;;;2.08;;
31724;SDS011;18306;40.960;14.836;2022-07-12T06:31:45;5.20;;;2.80;;
31724;SDS011;18306;40.960;14.836;2022-07-12T06:34:12;4.28;;;2.45;;
31724;SDS011;18306;40.960;14.836;2022-07-12T06:36:39;4.93;;;2.83;;
31724;SDS011;18306;40.960;14.836;2022-07-12T06:39:12;19.63;;;2.65;;
31724;SDS011;18306;40.960;14.836;2022-07-12T06:41:43;3.47;;;2.13;;
31724;SDS011;18306;40.960;14.836;2022-07-12T06:44:10;7.88;;;2.80;;
31724;SDS011;18306;40.960;14.836;2022-07-12T06:46:38;2.47;;;1.75;;
31724;SDS011;18306;40.960;14.836;2022-07-12T06:49:05;3.22;;;2.00;;
31724;SDS011;18306;40.960;14.836;2022-07-12T06:51:33;5.80;;;2.42;;
31724;SDS011;18306;40.960;14.836;2022-07-12T06:54:00;7.65;;;2.38;;
31724;SDS011;18306;40.960;14.836;2022-07-12T06:56:28;3.00;;;2.08;;
31724;SDS011;18306;40.960;14.836;2022-07-12T06:59:01;3.75;;;2.83;;
31724;SDS011;18306;40.960;14.836;2022-07-12T07:01:28;5.53;;;2.15;;
31724;SDS011;18306;40.960;14.836;2022-07-12T07:03:56;2.85;;;2.13;;
31724;SDS011;18306;40.960;14.836;2022-07-12T07:09:22;2.50;;;1.60;;
31724;SDS011;18306;40.960;14.836;2022-07-12T07:11:49;2.70;;;1.52;;
31724;SDS011;18306;40.960;14.836;2022-07-12T07:14:26;4.97;;;1.85;;
31724;SDS011;18306;40.960;14.836;2022-07-12T07:16:53;3.28;;;0.95;;
31724;SDS011;18306;40.960;14.836;2022-07-12T07:19:20;2.92;;;1.92;;
31724;SDS011;18306;40.960;14.836;2022-07-12T07:21:50;3.00;;;1.40;;
31724;SDS011;18306;40.960;14.836;2022-07-12T07:24:17;5.15;;;2.10;;
31724;SDS011;18306;40.960;14.836;2022-07-12T07:26:45;8.93;;;2.13;;
31724;SDS011;18306;40.960;14.836;2022-07-12T07:29:16;5.47;;;1.65;;
31724;SDS011;18306;40.960;14.836;2022-07-12T07:32:08;7.18;;;1.90;;
31724;SDS011;18306;40.960;14.836;2022-07-12T07:34:41;4.57;;;1.52;;
31724;SDS011;18306;40.960;14.836;2022-07-12T07:37:08;2.83;;;1.40;;
31724;SDS011;18306;40.960;14.836;2022-07-12T07:39:42;3.10;;;1.65;;
31724;SDS011;18306;40.960;14.836;2022-07-12T07:42:12;2.03;;;1.65;;
31724;SDS011;18306;40.960;14.836;2022-07-12T07:44:43;2.70;;;1.73;;
31724;SDS011;18306;40.960;14.836;2022-07-12T07:47:10;6.57;;;1.77;;
31724;SDS011;18306;40.960;14.836;2022-07-12T07:49:41;3.45;;;2.67;;
31724;SDS011;18306;40.960;14.836;2022-07-12T07:52:08;4.85;;;2.63;;
31724;SDS011;18306;40.960;14.836;2022-07-12T07:54:39;3.25;;;2.33;;
31724;SDS011;18306;40.960;14.836;2022-07-12T07:57:11;2.22;;;2.05;;
31724;SDS011;18306;40.960;14.836;2022-07-12T07:59:44;2.92;;;2.20;;
31724;SDS011;18306;40.960;14.836;2022-07-12T08:02:11;3.70;;;2.85;;
31724;SDS011;18306;40.960;14.836;2022-07-12T08:04:40;5.78;;;3.13;;
31724;SDS011;18306;40.960;14.836;2022-07-12T08:07:07;2.50;;;2.20;;
31724;SDS011;18306;40.960;14.836;2022-07-12T08:09:41;6.80;;;2.40;;
31724;SDS011;18306;40.960;14.836;2022-07-12T08:12:15;3.60;;;2.47;;
31724;SDS011;18306;40.960;14.836;2022-07-12T08:14:50;1.85;;;1.63;;
31724;SDS011;18306;40.960;14.836;2022-07-12T08:17:21;3.00;;;1.10;;
31724;SDS011;18306;40.960;14.836;2022-07-12T08:19:48;4.03;;;2.13;;
31724;SDS011;18306;40.960;14.836;2022-07-12T08:22:16;3.45;;;1.88;;
31724;SDS011;18306;40.960;14.836;2022-07-12T08:24:44;4.05;;;1.98;;
31724;SDS011;18306;40.960;14.836;2022-07-12T08:27:11;2.33;;;1.48;;
31724;SDS011;18306;40.960;14.836;2022-07-12T08:29:38;2.35;;;1.70;;
31724;SDS011;18306;40.960;14.836;2022-07-12T08:32:06;1.33;;;1.23;;
31724;SDS011;18306;40.960;14.836;2022-07-12T08:34:34;1.58;;;1.27;;
31724;SDS011;18306;40.960;14.836;2022-07-12T08:40:02;2.70;;;1.58;;
31724;SDS011;18306;40.960;14.836;2022-07-12T08:42:31;3.42;;;1.45;;
31724;SDS011;18306;40.960;14.836;2022-07-12T08:45:00;2.33;;;1.48;;
31724;SDS011;18306;40.960;14.836;2022-07-12T08:47:28;3.47;;;1.75;;
31724;SDS011;18306;40.960;14.836;2022-07-12T08:52:46;2.72;;;1.58;;
31724;SDS011;18306;40.960;14.836;2022-07-12T08:55:16;3.08;;;1.30;;
31724;SDS011;18306;40.960;14.836;2022-07-12T08:57:47;2.55;;;1.65;;
31724;SDS011;18306;40.960;14.836;2022-07-12T09:00:22;2.97;;;1.67;;
31724;SDS011;18306;40.960;14.836;2022-07-12T09:03:00;1.70;;;1.05;;
31724;SDS011;18306;40.960;14.836;2022-07-12T09:05:30;3.50;;;1.20;;
31724;SDS011;18306;40.960;14.836;2022-07-12T09:08:05;14.77;;;2.10;;
31724;SDS011;18306;40.960;14.836;2022-07-12T09:10:35;2.05;;;1.52;;
31724;SDS011;18306;40.960;14.836;2022-07-12T09:13:18;3.35;;;1.42;;
31724;SDS011;18306;40.960;14.836;2022-07-12T09:15:46;4.13;;;1.67;;
31724;SDS011;18306;40.960;14.836;2022-07-12T09:18:15;10.57;;;2.85;;
31724;SDS011;18306;40.960;14.836;2022-07-12T09:20:51;2.92;;;1.60;;
31724;SDS011;18306;40.960;14.836;2022-07-12T09:23:19;3.22;;;1.83;;
31724;SDS011;18306;40.960;14.836;2022-07-12T09:25:47;6.53;;;2.38;;
31724;SDS011;18306;40.960;14.836;2022-07-12T09:28:15;6.70;;;2.33;;
31724;SDS011;18306;40.960;14.836;2022-07-12T09:30:48;3.88;;;1.60;;
31724;SDS011;18306;40.960;14.836;2022-07-12T09:33:21;2.08;;;1.83;;
31724;SDS011;18306;40.960;14.836;2022-07-12T09:36:07;4.68;;;2.78;;
31724;SDS011;18306;40.960;14.836;2022-07-12T09:38:48;3.05;;;1.65;;
31724;SDS011;18306;40.960;14.836;2022-07-12T09:42:15;1.70;;;1.60;;
31724;SDS011;18306;40.960;14.836;2022-07-12T09:44:50;2.20;;;1.50;;
31724;SDS011;18306;40.960;14.836;2022-07-12T09:47:24;2.45;;;1.70;;
31724;SDS011;18306;40.960;14.836;2022-07-12T09:50:01;7.05;;;1.98;;
31724;SDS011;18306;40.960;14.836;2022-07-12T09:52:41;3.47;;;2.08;;
31724;SDS011;18306;40.960;14.836;2022-07-12T09:55:20;2.60;;;1.63;;
31724;SDS011;18306;40.960;14.836;2022-07-12T09:57:55;5.20;;;2.25;;
31724;SDS011;18306;40.960;14.836;2022-07-12T10:00:26;7.40;;;2.53;;
31724;SDS011;18306;40.960;14.836;2022-07-12T10:02:59;1.98;;;1.67;;
31724;SDS011;18306;40.960;14.836;2022-07-12T10:05:28;3.42;;;2.13;;
31724;SDS011;18306;40.960;14.836;2022-07-12T10:07:57;4.10;;;2.40;;
31724;SDS011;18306;40.960;14.836;2022-07-12T10:10:26;3.83;;;1.85;;
31724;SDS011;18306;40.960;14.836;2022-07-12T10:12:54;5.38;;;2.35;;
31724;SDS011;18306;40.960;14.836;2022-07-12T10:15:22;10.10;;;2.95;;
31724;SDS011;18306;40.960;14.836;2022-07-12T10:17:56;9.70;;;2.10;;
31724;SDS011;18306;40.960;14.836;2022-07-12T10:20:29;4.18;;;2.47;;
31724;SDS011;18306;40.960;14.836;2022-07-12T10:25:49;2.92;;;2.03;;
31724;SDS011;18306;40.960;14.836;2022-07-12T10:28:16;3.38;;;2.40;;
31724;SDS011;18306;40.960;14.836;2022-07-12T10:30:49;6.53;;;2.22;;
31724;SDS011;18306;40.960;14.836;2022-07-12T10:33:21;3.28;;;2.05;;
31724;SDS011;18306;40.960;14.836;2022-07-12T10:36:00;6.10;;;2.28;;
31724;SDS011;18306;40.960;14.836;2022-07-12T10:38:30;5.60;;;2.67;;
31724;SDS011;18306;40.960;14.836;2022-07-12T10:40:57;3.33;;;2.03;;
31724;SDS011;18306;40.960;14.836;2022-07-12T10:43:42;5.88;;;2.63;;
31724;SDS011;18306;40.960;14.836;2022-07-12T10:46:27;10.05;;;2.40;;
31724;SDS011;18306;40.960;14.836;2022-07-12T10:55:15;5.10;;;3.22;;
31724;SDS011;18306;40.960;14.836;2022-07-12T11:00:06;7.97;;;2.33;;
31724;SDS011;18306;40.960;14.836;2022-07-12T11:02:35;7.63;;;2.88;;
31724;SDS011;18306;40.960;14.836;2022-07-12T11:05:04;7.60;;;3.45;;
31724;SDS011;18306;40.960;14.836;2022-07-12T11:07:42;4.15;;;2.53;;
31724;SDS011;18306;40.960;14.836;2022-07-12T11:10:11;6.70;;;2.50;;
31724;SDS011;18306;40.960;14.836;2022-07-12T11:12:40;5.68;;;3.05;;
31724;SDS011;18306;40.960;14.836;2022-07-12T11:15:09;4.80;;;2.67;;
31724;SDS011;18306;40.960;14.836;2022-07-12T11:17:37;2.25;;;1.50;;
31724;SDS011;18306;40.960;14.836;2022-07-12T11:20:06;9.55;;;2.80;;
31724;SDS011;18306;40.960;14.836;2022-07-12T11:22:36;4.45;;;2.13;;
31724;SDS011;18306;40.960;14.836;2022-07-12T11:25:10;6.78;;;2.75;;
31724;SDS011;18306;40.960;14.836;2022-07-12T11:27:39;5.35;;;2.85;;
31724;SDS011;18306;40.960;14.836;2022-07-12T11:30:08;8.23;;;3.60;;
31724;SDS011;18306;40.960;14.836;2022-07-12T11:32:41;5.82;;;3.35;;
31724;SDS011;18306;40.960;14.836;2022-07-12T11:35:19;5.53;;;3.35;;
31724;SDS011;18306;40.960;14.836;2022-07-12T11:37:55;8.55;;;3.13;;
31724;SDS011;18306;40.960;14.836;2022-07-12T11:40:24;3.92;;;2.92;;
31724;SDS011;18306;40.960;14.836;2022-07-12T11:42:56;6.93;;;3.78;;
31724;SDS011;18306;40.960;14.836;2022-07-12T11:45:25;8.63;;;2.92;;
31724;SDS011;18306;40.960;14.836;2022-07-12T11:47:57;8.15;;;3.85;;
31724;SDS011;18306;40.960;14.836;2022-07-12T11:53:42;4.63;;;2.83;;
31724;SDS011;18306;40.960;14.836;2022-07-12T11:56:13;7.57;;;2.33;;
31724;SDS011;18306;40.960;14.836;2022-07-12T11:58:54;5.47;;;3.03;;
31724;SDS011;18306;40.960;14.836;2022-07-12T12:01:24;3.17;;;2.42;;
31724;SDS011;18306;40.960;14.836;2022-07-12T12:03:52;8.35;;;3.45;;
31724;SDS011;18306;40.960;14.836;2022-07-12T12:06:28;3.65;;;2.78;;
31724;SDS011;18306;40.960;14.836;2022-07-12T12:09:06;3.10;;;2.80;;
31724;SDS011;18306;40.960;14.836;2022-07-12T12:11:35;5.57;;;2.60;;
31724;SDS011;18306;40.960;14.836;2022-07-12T12:14:03;4.07;;;2.53;;
31724;SDS011;18306;40.960;14.836;2022-07-12T12:16:35;4.05;;;2.22;;
31724;SDS011;18306;40.960;14.836;2022-07-12T12:19:03;6.50;;;3.15;;
31724;SDS011;18306;40.960;14.836;2022-07-12T12:21:41;3.42;;;2.35;;
31724;SDS011;18306;40.960;14.836;2022-07-12T12:24:11;4.40;;;2.13;;
31724;SDS011;18306;40.960;14.836;2022-07-12T12:26:43;1.65;;;1.55;;
31724;SDS011;18306;40.960;14.836;2022-07-12T12:29:39;5.15;;;1.98;;
31724;SDS011;18306;40.960;14.836;2022-07-12T12:32:16;8.38;;;2.67;;
31724;SDS011;18306;40.960;14.836;2022-07-12T12:35:07;2.72;;;2.00;;
31724;SDS011;18306;40.960;14.836;2022-07-12T12:37:35;5.57;;;2.35;;
31724;SDS011;18306;40.960;14.836;2022-07-12T12:40:07;3.65;;;2.55;;
31724;SDS011;18306;40.960;14.836;2022-07-12T12:42:41;5.35;;;2.83;;
31724;SDS011;18306;40.960;14.836;2022-07-12T12:45:16;4.47;;;2.40;;
31724;SDS011;18306;40.960;14.836;2022-07-12T12:47:52;3.75;;;2.30;;
31724;SDS011;18306;40.960;14.836;2022-07-12T12:53:14;3.65;;;2.50;;
31724;SDS011;18306;40.960;14.836;2022-07-12T12:55:44;2.45;;;1.85;;
31724;SDS011;18306;40.960;14.836;2022-07-12T12:58:13;2.45;;;1.85;;
31724;SDS011;18306;40.960;14.836;2022-07-12T13:00:42;2.97;;;2.30;;
31724;SDS011;18306;40.960;14.836;2022-07-12T13:03:11;4.07;;;1.90;;
31724;SDS011;18306;40.960;14.836;2022-07-12T13:05:40;1.63;;;1.52;;
31724;SDS011;18306;40.960;14.836;2022-07-12T13:08:11;3.72;;;2.30;;
31724;SDS011;18306;40.960;14.836;2022-07-12T13:10:40;10.05;;;1.95;;
31724;SDS011;18306;40.960;14.836;2022-07-12T13:13:08;2.78;;;1.73;;
31724;SDS011;18306;40.960;14.836;2022-07-12T13:15:36;3.38;;;2.08;;
31724;SDS011;18306;40.960;14.836;2022-07-12T13:18:04;5.28;;;1.85;;
31724;SDS011;18306;40.960;14.836;2022-07-12T13:20:32;7.55;;;1.55;;
31724;SDS011;18306;40.960;14.836;2022-07-12T13:23:00;6.63;;;1.67;;
31724;SDS011;18306;40.960;14.836;2022-07-12T13:25:29;4.75;;;1.75;;
31724;SDS011;18306;40.960;14.836;2022-07-12T13:28:00;3.65;;;2.25;;
31724;SDS011;18306;40.960;14.836;2022-07-12T13:30:28;2.13;;;1.80;;
31724;SDS011;18306;40.960;14.836;2022-07-12T13:32:55;8.68;;;1.70;;
31724;SDS011;18306;40.960;14.836;2022-07-12T13:35:22;1.58;;;1.27;;
31724;SDS011;18306;40.960;14.836;2022-07-12T13:37:52;2.03;;;1.65;;
31724;SDS011;18306;40.960;14.836;2022-07-12T13:40:20;2.70;;;1.80;;
31724;SDS011;18306;40.960;14.836;2022-07-12T13:42:49;3.08;;;2.28;;
31724;SDS011;18306;40.960;14.836;2022-07-12T13:45:19;2.50;;;1.75;;
31724;SDS011;18306;40.960;14.836;2022-07-12T13:47:54;3.85;;;1.77;;
31724;SDS011;18306;40.960;14.836;2022-07-12T13:50:21;3.08;;;2.00;;
31724;SDS011;18306;40.960;14.836;2022-07-12T13:52:49;1.95;;;1.67;;
31724;SDS011;18306;40.960;14.836;2022-07-12T13:55:17;1.90;;;1.67;;
31724;SDS011;18306;40.960;14.836;2022-07-12T13:57:48;3.85;;;1.73;;
31724;SDS011;18306;40.960;14.836;2022-07-12T14:00:16;2.17;;;1.70;;
31724;SDS011;18306;40.960;14.836;2022-07-12T14:02:47;6.85;;;2.35;;
31724;SDS011;18306;40.960;14.836;2022-07-12T14:05:16;18.73;;;2.45;;
31724;SDS011;18306;40.960;14.836;2022-07-12T14:07:43;2.15;;;1.70;;
31724;SDS011;18306;40.960;14.836;2022-07-12T14:10:15;2.20;;;1.98;;
31724;SDS011;18306;40.960;14.836;2022-07-12T14:12:43;1.33;;;1.23;;
31724;SDS011;18306;40.960;14.836;2022-07-12T14:18:44;2.53;;;2.03;;
31724;SDS011;18306;40.960;14.836;2022-07-12T14:21:15;3.80;;;1.58;;
31724;SDS011;18306;40.960;14.836;2022-07-12T14:23:43;3.55;;;2.25;;
31724;SDS011;18306;40.960;14.836;2022-07-12T14:26:10;3.03;;;1.60;;
31724;SDS011;18306;40.960;14.836;2022-07-12T14:28:38;2.63;;;1.60;;
31724;SDS011;18306;40.960;14.836;2022-07-12T14:31:05;2.17;;;1.42;;
31724;SDS011;18306;40.960;14.836;2022-07-12T14:33:33;1.55;;;1.45;;
31724;SDS011;18306;40.960;14.836;2022-07-12T14:36:01;2.90;;;1.33;;
31724;SDS011;18306;40.960;14.836;2022-07-12T14:38:28;2.75;;;2.00;;
31724;SDS011;18306;40.960;14.836;2022-07-12T14:40:56;2.75;;;1.30;;
31724;SDS011;18306;40.960;14.836;2022-07-12T14:43:24;2.95;;;1.52;;
31724;SDS011;18306;40.960;14.836;2022-07-12T14:45:51;1.48;;;1.38;;
31724;SDS011;18306;40.960;14.836;2022-07-12T14:48:18;1.33;;;1.23;;
31724;SDS011;18306;40.960;14.836;2022-07-12T14:50:46;2.15;;;1.55;;
31724;SDS011;18306;40.960;14.836;2022-07-12T14:53:18;3.85;;;1.70;;
31724;SDS011;18306;40.960;14.836;2022-07-12T14:58:46;1.35;;;1.25;;
31724;SDS011;18306;40.960;14.836;2022-07-12T15:01:18;0.88;;;0.88;;
31724;SDS011;18306;40.960;14.836;2022-07-12T15:07:06;2.58;;;1.40;;
31724;SDS011;18306;40.960;14.836;2022-07-12T15:09:34;3.45;;;1.48;;
31724;SDS011;18306;40.960;14.836;2022-07-12T15:12:04;4.40;;;1.13;;
31724;SDS011;18306;40.960;14.836;2022-07-12T15:14:58;1.88;;;1.13;;
31724;SDS011;18306;40.960;14.836;2022-07-12T15:17:30;1.55;;;1.38;;
31724;SDS011;18306;40.960;14.836;2022-07-12T15:20:00;1.65;;;0.98;;
31724;SDS011;18306;40.960;14.836;2022-07-12T15:22:28;0.75;;;0.75;;
31724;SDS011;18306;40.960;14.836;2022-07-12T15:24:55;1.92;;;1.10;;